Aviation Digital Data Service (ADDS)

Output produced by METARs form (0741 UTC 24 October 2014)
found at http://aviationweather.gov/adds/metars/
 
KLCH 240522Z 2406/2506 VRB05KT P6SM SCT250